Terminal Aerodrome Forecast
Issued by NWS

Current Version | Previous Version | Text Only | Print | Product List | Glossary On
Versions: 1 2 3 4 5 6 7 8 9 10 11 12 13 14 15 16 17 18 19 20 21 22 23 24 25 26 27 28 29 30 31 32 33 34 35
000
FTUS44 KOUN 030217 AAA
TAFPNC
TAF AMD
KPNC 030217Z 0302/0324 17010G18KT 1SM BR OVC004
      TEMPO 0304/0308 1/2SM FG OVC003
     FM031300 20010KT P6SM SCT010 OVC020
     FM032100 34012KT P6SM SCT020 BKN100=

USA.gov is the U.S. government's official web portal to all federal, state and local government web resources and services.